Shongopovi, Arizona
Current Conditions -  °F | °C
As of 6:56 PM on Wednesday 22 Oct 2014 (Local Time) from KINW Reporting Station
Clear Clear  
Wind Chill: 59°   Ceiling: Unl
Heat Index: 59°   Visibility: 10mi
Dew Point: 38°   Wind: 5mph
Humidity: 46%   Direction: 220°SW
Pressure: 30.14"   Gusts: NA
Location:  35.9162°N, 110.658°W
Report Text: KINW 230156Z AUTO 22004KT 10SM CLR 15/03 A3014 RMK AO2 SLP175 T01500033
Loading
Personal Weather Stations






























Interactive Weather Map
Tropical Storm Tracking
New forecast layout! Learn more

10-Day Weather Forecast

Advertisements
Track Severe Weather on mobile